Decoded Metar for RJBB (KANSAI INTL in JAPAN) (IATA:N/A) | Meteo·Mobile Aviation Weather
aviador You're here:

RJBB Decoded Metar

KANSAI INTL in JAPAN
Report Time2018-10-20 12:00:00
UTC Time2018-10-20 12:24:29
Flight Rules vfr VFR
Wind350° at 14 kt
W.Decomp.*RWY 06: 6.4 kt HW 12.5 kt LCW
W.Rank350° ranks 25
Current wind is above 350° avg. (8.3)
Visibility9999 m
Phenomena:N/A
Clouds:Few 030 Hf
Scattered 045 Hf
Expected CloudBase > 4,000 ft AGL from Temp-Dew spread
CeilingNone
Temp17°C (ISA +2)
Dew Point07°C (52% RH)
AAT11.3°C
QNH1021 hPa
Density Alt135 ft
Elevation26 ft
Report Wrong Elevation
Raw Report
METAR RJBB 201200Z 35014KT 9999 FEW030 SCT045 17/07 Q1021 NOSIG=

Extra information for RJBB:More info

Metar Taf Metar & Taf Last 4 Metars F.Rules Stats Wind Profile Meteogram Temp Stats Airport Information Weather charts Add Link Nearby VenuesMetar ALERT Operation Metar Decoded Social comments